Time;durP1;ratioP1;P1;durP2;ratioP2;P2;SDS_P1;SDS_P2;PMS_P1;PMS_P2;Temp;Humidity;BMP_temperature;BMP_pressure;BME280_temperature;BME280_humidity;BME280_pressure;Samples;Min_cycle;Max_cycle;Signal;HPM_P1;HPM_P2
2021/06/27 00:01:00;;;;;;;;;21.50;17.50;;;;;;;;5017607;28;45412;-78
2021/06/27 00:03:25;;;;;;;;;21.50;19.00;;;;;;;;5016954;28;47270;-78
2021/06/27 00:05:50;;;;;;;;;22.75;19.00;;;;;;;;5015144;28;45892;-79
2021/06/27 00:08:17;;;;;;;;;19.67;17.33;;;;;;;;5019255;28;45687;-79
2021/06/27 00:10:43;;;;;;;;;20.75;18.00;;;;;;;;5010653;28;45680;-79
2021/06/27 00:13:09;;;;;;;;;19.75;18.00;;;;;;;;5017985;28;45964;-79
2021/06/27 00:15:37;;;;;;;;;24.00;19.50;;;;;;;;5008726;28;45524;-79
2021/06/27 00:18:04;;;;;;;;;19.00;17.25;;;;;;;;5015557;28;45427;-79
2021/06/27 00:20:32;;;;;;;;;19.75;16.00;;;;;;;;5018522;28;45598;-79
2021/06/27 00:22:57;;;;;;;;;18.25;18.00;;;;;;;;5015471;28;47089;-79
2021/06/27 00:25:24;;;;;;;;;19.50;18.00;;;;;;;;5013061;28;46739;-79
2021/06/27 00:27:50;;;;;;;;;21.25;17.25;;;;;;;;5017615;28;45582;-79
2021/06/27 00:30:17;;;;;;;;;21.75;19.75;;;;;;;;5011866;28;45789;-79
2021/06/27 00:32:43;;;;;;;;;19.25;15.50;;;;;;;;5015203;28;47109;-81
2021/06/27 00:35:10;;;;;;;;;20.00;18.25;;;;;;;;5012407;28;45484;-79
2021/06/27 00:37:35;;;;;;;;;20.25;17.00;;;;;;;;5016230;28;45610;-79
2021/06/27 00:40:01;;;;;;;;;18.00;17.50;;;;;;;;5017722;28;45269;-78
2021/06/27 00:42:26;;;;;;;;;20.50;19.50;;;;;;;;5006390;28;45528;-79
2021/06/27 00:44:52;;;;;;;;;20.00;17.67;;;;;;;;5009464;28;45512;-79
2021/06/27 00:47:36;;;;;;;;;19.25;17.00;;;;;;;;5033819;28;45535;-79
2021/06/27 00:50:03;;;;;;;;;21.00;19.25;;;;;;;;5012888;28;46053;-79
2021/06/27 00:52:28;;;;;;;;;18.50;15.75;;;;;;;;5022965;28;47532;-78
2021/06/27 00:54:53;;;;;;;;;19.67;17.00;;;;;;;;5014843;28;46374;-80
2021/06/27 00:57:19;;;;;;;;;25.75;18.00;;;;;;;;5008467;28;45506;-76
2021/06/27 00:59:44;;;;;;;;;20.25;18.00;;;;;;;;5008126;28;45660;-77
2021/06/27 01:02:10;;;;;;;;;18.75;18.00;;;;;;;;5020467;28;47286;-77
2021/06/27 01:04:38;;;;;;;;;22.50;20.25;;;;;;;;5011956;28;45866;-77
2021/06/27 01:07:05;;;;;;;;;21.25;20.25;;;;;;;;5008630;28;46533;-76
2021/06/27 01:09:30;;;;;;;;;20.75;19.50;;;;;;;;5012416;28;45653;-77
2021/06/27 01:11:56;;;;;;;;;22.75;19.25;;;;;;;;5008985;28;46919;-76
2021/06/27 01:14:21;;;;;;;;;19.50;19.00;;;;;;;;5017830;28;45773;-76
2021/06/27 01:16:47;;;;;;;;;28.67;25.67;;;;;;;;5011977;28;45822;-76
2021/06/27 01:19:12;;;;;;;;;48.75;39.00;;;;;;;;5018158;28;45872;-76
2021/06/27 01:21:37;;;;;;;;;49.00;38.67;;;;;;;;5015489;28;45845;-76
2021/06/27 01:24:03;;;;;;;;;45.33;36.33;;;;;;;;5025049;28;45418;-76
2021/06/27 01:26:28;;;;;;;;;46.00;36.50;;;;;;;;5020464;28;46420;-77
2021/06/27 01:28:54;;;;;;;;;51.67;37.33;;;;;;;;5014686;28;46628;-75
2021/06/27 01:31:19;;;;;;;;;43.00;34.00;;;;;;;;5019821;28;46111;-76
2021/06/27 01:33:48;;;;;;;;;39.25;33.00;;;;;;;;5018226;28;45539;-76
2021/06/27 01:36:13;;;;;;;;;39.00;32.50;;;;;;;;5008958;28;45709;-76
2021/06/27 01:38:38;;;;;;;;;35.25;28.00;;;;;;;;5015931;28;46081;-76
2021/06/27 01:41:04;;;;;;;;;30.50;24.25;;;;;;;;5018489;28;47189;-75
2021/06/27 01:43:29;;;;;;;;;27.50;26.00;;;;;;;;5006755;28;50841;-76
2021/06/27 01:45:57;;;;;;;;;22.50;22.00;;;;;;;;5012597;28;45488;-75
2021/06/27 01:48:23;;;;;;;;;26.50;23.00;;;;;;;;5011373;28;45545;-76
2021/06/27 01:50:50;;;;;;;;;27.50;23.50;;;;;;;;5015450;28;46055;-75
2021/06/27 01:53:17;;;;;;;;;27.50;25.50;;;;;;;;5008460;28;46022;-76
2021/06/27 01:55:42;;;;;;;;;30.50;25.50;;;;;;;;5019835;28;45939;-78
2021/06/27 01:58:08;;;;;;;;;25.00;23.25;;;;;;;;5010311;28;58878;-78
2021/06/27 02:00:34;;;;;;;;;28.75;25.00;;;;;;;;5025367;28;48163;-78
2021/06/27 02:03:02;;;;;;;;;30.00;26.00;;;;;;;;5016765;28;45949;-78
2021/06/27 02:05:29;;;;;;;;;31.00;26.50;;;;;;;;5013936;28;45525;-78
2021/06/27 02:07:55;;;;;;;;;29.00;25.00;;;;;;;;5020940;28;45349;-79
2021/06/27 02:10:21;;;;;;;;;22.00;19.25;;;;;;;;5010597;28;47282;-79
2021/06/27 02:12:46;;;;;;;;;21.00;19.75;;;;;;;;5018737;28;45765;-78
2021/06/27 02:15:12;;;;;;;;;24.00;23.50;;;;;;;;5010968;28;45678;-78
2021/06/27 02:17:47;;;;;;;;;28.75;22.00;;;;;;;;5012969;28;45679;-79
2021/06/27 02:20:12;;;;;;;;;23.75;21.75;;;;;;;;5008785;28;45589;-79
2021/06/27 02:22:37;;;;;;;;;21.75;18.25;;;;;;;;5013553;28;46142;-78
2021/06/27 02:25:03;;;;;;;;;27.25;24.00;;;;;;;;5013161;28;45859;-78
2021/06/27 02:27:28;;;;;;;;;21.00;19.00;;;;;;;;5019473;28;45823;-78
2021/06/27 02:29:53;;;;;;;;;25.25;18.00;;;;;;;;5019329;28;46172;-79
2021/06/27 02:32:18;;;;;;;;;21.00;19.33;;;;;;;;5017562;28;45528;-79
2021/06/27 02:34:44;;;;;;;;;21.67;18.33;;;;;;;;5015947;28;46320;-79
2021/06/27 02:37:09;;;;;;;;;19.00;17.25;;;;;;;;5009660;28;46439;-79
2021/06/27 02:39:34;;;;;;;;;22.00;19.25;;;;;;;;5024020;28;48989;-79
2021/06/27 02:42:00;;;;;;;;;21.33;17.00;;;;;;;;5017684;28;45597;-79
2021/06/27 02:44:25;;;;;;;;;21.50;19.50;;;;;;;;5012971;28;45645;-79
2021/06/27 02:46:50;;;;;;;;;24.00;20.67;;;;;;;;5018837;28;45702;-79
2021/06/27 02:49:15;;;;;;;;;21.50;18.00;;;;;;;;5008034;28;45747;-79
2021/06/27 02:51:41;;;;;;;;;21.00;17.25;;;;;;;;5023341;28;45655;-79
2021/06/27 02:54:06;;;;;;;;;19.50;17.75;;;;;;;;5032261;28;45541;-79
2021/06/27 02:56:32;;;;;;;;;19.33;18.00;;;;;;;;5018779;28;45496;-77
2021/06/27 02:58:57;;;;;;;;;22.00;18.50;;;;;;;;5012586;28;46225;-76
2021/06/27 03:01:22;;;;;;;;;18.33;18.00;;;;;;;;5006819;28;45537;-76
2021/06/27 03:03:51;;;;;;;;;21.67;15.33;;;;;;;;5016331;28;45452;-77
2021/06/27 03:06:17;;;;;;;;;19.00;17.00;;;;;;;;5016162;28;45676;-76
2021/06/27 03:08:43;;;;;;;;;22.25;16.50;;;;;;;;5006064;28;46808;-76
2021/06/27 03:11:09;;;;;;;;;24.25;18.00;;;;;;;;5016396;28;45463;-76
2021/06/27 03:13:35;;;;;;;;;18.50;15.75;;;;;;;;5001225;28;45663;-76
2021/06/27 03:16:00;;;;;;;;;20.50;17.50;;;;;;;;5015658;28;45848;-77
2021/06/27 03:18:25;;;;;;;;;22.00;18.00;;;;;;;;5004667;28;48664;-75
2021/06/27 03:20:50;;;;;;;;;18.00;18.00;;;;;;;;5010966;28;47560;-76
2021/06/27 03:23:16;;;;;;;;;22.25;18.25;;;;;;;;5007107;28;45426;-76
2021/06/27 03:25:41;;;;;;;;;18.67;17.67;;;;;;;;5016541;28;45478;-75
2021/06/27 03:28:07;;;;;;;;;21.75;19.25;;;;;;;;5006803;28;45949;-76
2021/06/27 03:30:32;;;;;;;;;23.25;19.00;;;;;;;;5015168;28;45470;-76
2021/06/27 03:32:58;;;;;;;;;28.00;19.50;;;;;;;;5019367;28;45418;-76
2021/06/27 03:35:23;;;;;;;;;19.50;18.50;;;;;;;;5010239;28;57608;-76
2021/06/27 03:37:55;;;;;;;;;17.50;15.75;;;;;;;;5005153;28;46939;-76
2021/06/27 03:40:20;;;;;;;;;19.75;17.25;;;;;;;;5017503;28;45780;-77
2021/06/27 03:42:47;;;;;;;;;21.50;19.00;;;;;;;;5005375;28;45550;-76
2021/06/27 03:45:14;;;;;;;;;18.25;17.25;;;;;;;;5015606;28;45441;-77
2021/06/27 03:47:40;;;;;;;;;17.50;15.50;;;;;;;;5016516;28;46101;-76
2021/06/27 03:50:05;;;;;;;;;23.00;16.25;;;;;;;;5012241;28;45462;-76
2021/06/27 03:52:30;;;;;;;;;19.00;17.75;;;;;;;;5010501;28;45476;-76
2021/06/27 03:54:55;;;;;;;;;19.50;17.50;;;;;;;;5028461;28;45696;-76
2021/06/27 03:57:21;;;;;;;;;19.00;17.00;;;;;;;;5032601;28;48235;-78
2021/06/27 03:59:46;;;;;;;;;17.75;16.25;;;;;;;;5014510;28;45475;-78
2021/06/27 04:02:11;;;;;;;;;22.33;17.00;;;;;;;;5014829;28;46220;-78
2021/06/27 04:04:36;;;;;;;;;18.50;17.50;;;;;;;;5008846;28;45584;-79
2021/06/27 04:07:02;;;;;;;;;27.25;18.75;;;;;;;;5011171;28;48016;-78
2021/06/27 04:09:27;;;;;;;;;22.25;20.00;;;;;;;;5036078;28;46241;-78
2021/06/27 04:11:52;;;;;;;;;17.50;17.50;;;;;;;;5004520;28;45512;-79
2021/06/27 04:14:18;;;;;;;;;18.00;18.00;;;;;;;;5010388;28;45535;-78
2021/06/27 04:16:43;;;;;;;;;19.00;17.50;;;;;;;;5024353;28;47425;-79
2021/06/27 04:19:09;;;;;;;;;20.75;17.00;;;;;;;;5018760;28;45512;-79
2021/06/27 04:21:34;;;;;;;;;23.25;19.00;;;;;;;;5021984;28;45706;-79
2021/06/27 04:23:59;;;;;;;;;21.67;18.33;;;;;;;;5006091;28;45519;-79
2021/06/27 04:26:28;;;;;;;;;25.25;20.50;;;;;;;;5021791;28;48130;-78
2021/06/27 04:28:53;;;;;;;;;19.75;18.00;;;;;;;;5030606;28;45576;-79
2021/06/27 04:31:18;;;;;;;;;17.50;16.75;;;;;;;;5010792;28;45525;-79
2021/06/27 04:33:44;;;;;;;;;23.75;17.00;;;;;;;;5027780;28;63053;-79
2021/06/27 04:36:09;;;;;;;;;21.75;19.25;;;;;;;;5018281;28;45749;-79
2021/06/27 04:38:34;;;;;;;;;21.00;17.75;;;;;;;;5014036;28;45540;-79
2021/06/27 04:40:59;;;;;;;;;20.50;18.50;;;;;;;;5023986;28;45460;-79
2021/06/27 04:43:25;;;;;;;;;22.25;18.00;;;;;;;;5006731;28;47813;-79
2021/06/27 04:45:50;;;;;;;;;22.50;18.50;;;;;;;;5028809;28;47527;-79
2021/06/27 04:48:15;;;;;;;;;17.75;15.25;;;;;;;;5015849;28;46332;-80
2021/06/27 04:50:41;;;;;;;;;20.00;15.75;;;;;;;;5020979;28;46712;-80
2021/06/27 04:53:10;;;;;;;;;23.25;17.00;;;;;;;;5022090;28;51086;-80
2021/06/27 04:55:39;;;;;;;;;17.75;16.00;;;;;;;;5023299;28;47419;-77
2021/06/27 04:58:05;;;;;;;;;18.50;16.25;;;;;;;;5025317;28;45688;-76
2021/06/27 05:00:30;;;;;;;;;17.00;14.00;;;;;;;;5017925;28;45624;-77
2021/06/27 05:02:56;;;;;;;;;18.50;16.75;;;;;;;;5015097;28;45612;-76
2021/06/27 05:05:21;;;;;;;;;22.25;18.25;;;;;;;;5019117;28;45655;-76
2021/06/27 05:07:46;;;;;;;;;19.00;17.00;;;;;;;;5012418;28;46065;-76
2021/06/27 05:10:12;;;;;;;;;18.00;16.00;;;;;;;;5019356;28;46032;-76
2021/06/27 05:12:37;;;;;;;;;17.75;16.25;;;;;;;;5015517;28;45540;-77
2021/06/27 05:15:02;;;;;;;;;21.00;19.75;;;;;;;;5018033;28;47296;-76
2021/06/27 05:17:28;;;;;;;;;24.50;19.00;;;;;;;;5024138;28;45873;-76
2021/06/27 05:19:53;;;;;;;;;24.00;18.00;;;;;;;;5010606;28;45616;-76
2021/06/27 05:22:18;;;;;;;;;23.00;20.25;;;;;;;;5013700;28;45427;-76
2021/06/27 05:24:43;;;;;;;;;19.33;17.67;;;;;;;;5019510;28;46225;-76
2021/06/27 05:27:09;;;;;;;;;20.25;16.25;;;;;;;;5012063;28;45600;-76
2021/06/27 05:29:34;;;;;;;;;21.33;15.67;;;;;;;;5019926;28;45534;-77
2021/06/27 05:32:00;;;;;;;;;21.00;18.00;;;;;;;;5039283;28;45711;-77
2021/06/27 05:34:27;;;;;;;;;17.50;15.75;;;;;;;;5015062;28;45665;-77
2021/06/27 05:36:52;;;;;;;;;19.75;17.00;;;;;;;;5013355;28;45896;-76
2021/06/27 05:39:18;;;;;;;;;19.00;17.00;;;;;;;;5008206;28;45462;-76
2021/06/27 05:41:43;;;;;;;;;25.25;18.00;;;;;;;;5014580;28;45559;-76
2021/06/27 05:44:08;;;;;;;;;25.50;17.00;;;;;;;;5016451;28;45645;-76
2021/06/27 05:46:34;;;;;;;;;21.00;19.50;;;;;;;;5013160;28;45834;-76
2021/06/27 05:48:59;;;;;;;;;21.25;18.50;;;;;;;;5011524;28;45454;-76
2021/06/27 05:51:26;;;;;;;;;17.00;17.00;;;;;;;;5021025;28;45368;-76
2021/06/27 05:53:51;;;;;;;;;23.75;17.25;;;;;;;;5007494;28;45513;-77
2021/06/27 05:56:19;;;;;;;;;20.00;16.75;;;;;;;;5023231;28;45704;-76
2021/06/27 05:58:44;;;;;;;;;22.00;18.75;;;;;;;;5015954;28;45502;-76
2021/06/27 06:01:11;;;;;;;;;18.25;16.75;;;;;;;;5010472;28;45375;-76
2021/06/27 06:03:36;;;;;;;;;19.25;17.00;;;;;;;;5021780;28;48155;-76
2021/06/27 06:06:02;;;;;;;;;20.00;18.00;;;;;;;;5004874;28;48118;-76
2021/06/27 06:08:28;;;;;;;;;18.50;16.75;;;;;;;;5008978;28;45348;-76
2021/06/27 06:10:53;;;;;;;;;22.50;16.25;;;;;;;;5009240;28;45830;-76
2021/06/27 06:13:18;;;;;;;;;22.75;17.00;;;;;;;;5013907;28;48631;-76
2021/06/27 06:15:44;;;;;;;;;17.25;16.00;;;;;;;;5027157;22;45500;-77
2021/06/27 06:18:09;;;;;;;;;22.50;18.75;;;;;;;;5003018;28;46900;-76
2021/06/27 06:20:35;;;;;;;;;21.33;19.33;;;;;;;;5002743;28;45488;-77
2021/06/27 06:23:00;;;;;;;;;18.00;15.00;;;;;;;;5006609;28;45506;-76
2021/06/27 06:25:25;;;;;;;;;23.00;17.00;;;;;;;;5016449;28;48188;-76
2021/06/27 06:27:51;;;;;;;;;19.50;17.00;;;;;;;;5005824;28;45466;-76
2021/06/27 06:30:16;;;;;;;;;18.67;15.67;;;;;;;;5005919;28;45481;-76
2021/06/27 06:32:41;;;;;;;;;19.00;19.00;;;;;;;;5003369;28;46224;-77
2021/06/27 06:35:07;;;;;;;;;25.25;18.50;;;;;;;;5005951;28;45636;-76
2021/06/27 06:37:32;;;;;;;;;20.00;18.50;;;;;;;;5001527;28;45564;-76
2021/06/27 06:39:57;;;;;;;;;19.00;18.67;;;;;;;;5004644;28;45584;-77
2021/06/27 06:42:23;;;;;;;;;19.25;17.25;;;;;;;;5004947;28;47041;-76
2021/06/27 06:44:48;;;;;;;;;23.00;21.00;;;;;;;;4999677;28;45600;-77
2021/06/27 06:47:13;;;;;;;;;21.50;19.75;;;;;;;;5007737;28;45753;-77
2021/06/27 06:49:38;;;;;;;;;18.50;17.50;;;;;;;;4999608;28;45616;-76
2021/06/27 06:52:04;;;;;;;;;21.33;19.00;;;;;;;;5003666;28;46042;-77
2021/06/27 06:54:29;;;;;;;;;21.50;17.00;;;;;;;;5005009;28;45648;-77
2021/06/27 06:56:54;;;;;;;;;21.50;18.50;;;;;;;;5018736;28;45522;-79
2021/06/27 06:59:20;;;;;;;;;21.50;19.75;;;;;;;;5046584;22;45395;-80
2021/06/27 07:01:45;;;;;;;;;21.67;20.33;;;;;;;;5070785;27;46690;-79
2021/06/27 07:04:10;;;;;;;;;17.50;17.00;;;;;;;;5034437;28;45566;-79
2021/06/27 07:06:36;;;;;;;;;19.50;17.75;;;;;;;;5035467;28;45414;-79
2021/06/27 07:09:01;;;;;;;;;22.00;19.25;;;;;;;;5033757;28;45756;-80
2021/06/27 07:11:26;;;;;;;;;20.00;17.50;;;;;;;;5029261;28;47593;-79
2021/06/27 07:13:51;;;;;;;;;17.00;15.25;;;;;;;;5033108;28;45639;-80
2021/06/27 07:16:17;;;;;;;;;17.50;17.00;;;;;;;;5048537;28;45568;-79
2021/06/27 07:18:42;;;;;;;;;22.00;17.00;;;;;;;;5035763;28;45378;-79
2021/06/27 07:21:07;;;;;;;;;17.50;16.00;;;;;;;;5032336;28;49030;-79
2021/06/27 07:23:32;;;;;;;;;18.50;17.25;;;;;;;;5028342;28;45499;-79
2021/06/27 07:25:58;;;;;;;;;20.00;17.00;;;;;;;;5026641;28;46418;-79
2021/06/27 07:28:24;;;;;;;;;21.00;17.00;;;;;;;;5027977;28;45516;-79
2021/06/27 07:30:49;;;;;;;;;17.50;15.00;;;;;;;;5028227;28;47075;-79
2021/06/27 07:33:15;;;;;;;;;22.75;19.50;;;;;;;;5031075;28;45856;-78
2021/06/27 07:35:40;;;;;;;;;18.00;16.25;;;;;;;;5028621;28;45622;-80
2021/06/27 07:38:05;;;;;;;;;20.50;17.50;;;;;;;;5024804;28;45577;-78
2021/06/27 07:40:31;;;;;;;;;19.25;17.25;;;;;;;;5025576;28;45524;-79
2021/06/27 07:42:56;;;;;;;;;17.75;14.75;;;;;;;;5029961;28;45417;-78
2021/06/27 07:45:21;;;;;;;;;20.00;16.00;;;;;;;;5047659;27;45512;-78
2021/06/27 07:47:46;;;;;;;;;20.25;20.25;;;;;;;;5025984;28;48531;-78
2021/06/27 07:50:12;;;;;;;;;18.25;17.00;;;;;;;;5030507;28;46888;-78
2021/06/27 07:52:39;;;;;;;;;20.50;16.00;;;;;;;;5025073;28;45648;-78
2021/06/27 07:55:05;;;;;;;;;20.50;16.00;;;;;;;;5027320;28;45674;-78
2021/06/27 07:57:30;;;;;;;;;19.50;16.25;;;;;;;;5042665;27;46282;-75
2021/06/27 07:59:55;;;;;;;;;23.00;17.33;;;;;;;;5022390;28;45696;-75
2021/06/27 08:02:21;;;;;;;;;17.00;16.00;;;;;;;;5031579;28;45485;-76
2021/06/27 08:04:46;;;;;;;;;18.50;16.25;;;;;;;;5029000;28;45676;-75
2021/06/27 08:07:11;;;;;;;;;14.00;14.00;;;;;;;;5037679;28;45627;-77
2021/06/27 08:09:36;;;;;;;;;19.75;18.00;;;;;;;;5035015;28;47786;-75
2021/06/27 08:12:02;;;;;;;;;16.67;16.67;;;;;;;;5026123;28;45477;-75
2021/06/27 08:14:27;;;;;;;;;20.50;16.50;;;;;;;;5028081;28;45564;-75
2021/06/27 08:16:52;;;;;;;;;19.00;17.75;;;;;;;;5043356;27;46024;-75
2021/06/27 08:19:17;;;;;;;;;19.75;17.00;;;;;;;;5025749;28;46193;-77
2021/06/27 08:21:43;;;;;;;;;23.00;18.00;;;;;;;;5033055;28;45480;-76
2021/06/27 08:24:08;;;;;;;;;19.50;17.50;;;;;;;;5032023;28;45872;-76
2021/06/27 08:26:33;;;;;;;;;19.50;18.50;;;;;;;;5039505;28;45571;-76
2021/06/27 08:28:59;;;;;;;;;18.00;16.00;;;;;;;;5037187;28;46195;-75
2021/06/27 08:31:26;;;;;;;;;18.00;16.50;;;;;;;;5034098;28;45413;-75
2021/06/27 08:33:51;;;;;;;;;18.75;17.25;;;;;;;;5029109;28;46378;-76
2021/06/27 08:36:16;;;;;;;;;18.25;18.25;;;;;;;;5049774;28;46144;-76
2021/06/27 08:38:41;;;;;;;;;19.25;17.75;;;;;;;;5032923;28;45591;-76
2021/06/27 08:41:07;;;;;;;;;18.25;18.25;;;;;;;;5046474;28;45475;-75
2021/06/27 08:46:08;;;;;;;;;19.25;15.75;;;;;;;;4902536;25;46208;-76
2021/06/27 08:48:40;;;;;;;;;19.25;18.00;;;;;;;;5035106;28;46106;-75
2021/06/27 08:51:06;;;;;;;;;18.50;17.50;;;;;;;;5024558;28;46353;-75
2021/06/27 08:53:32;;;;;;;;;17.75;15.75;;;;;;;;5031204;28;45554;-75
2021/06/27 08:56:07;;;;;;;;;21.50;17.75;;;;;;;;5037237;28;45529;-78
2021/06/27 08:58:32;;;;;;;;;18.75;15.00;;;;;;;;5025593;28;45522;-78
2021/06/27 09:00:58;;;;;;;;;20.25;18.00;;;;;;;;5038640;28;45674;-78
2021/06/27 09:03:24;;;;;;;;;19.00;16.75;;;;;;;;5026030;28;45941;-78
2021/06/27 09:05:49;;;;;;;;;20.67;18.67;;;;;;;;5027507;28;45528;-78
2021/06/27 09:08:15;;;;;;;;;22.25;18.75;;;;;;;;5041410;28;46435;-79
2021/06/27 09:10:40;;;;;;;;;25.00;17.25;;;;;;;;5025870;28;45643;-78
2021/06/27 09:13:06;;;;;;;;;20.50;18.75;;;;;;;;5033973;28;47241;-78
2021/06/27 09:15:34;;;;;;;;;15.25;15.00;;;;;;;;5031877;28;47578;-78
2021/06/27 09:18:00;;;;;;;;;19.75;17.25;;;;;;;;5027603;28;46457;-78
2021/06/27 09:20:25;;;;;;;;;19.50;16.00;;;;;;;;5031471;28;52230;-78
2021/06/27 09:22:51;;;;;;;;;19.00;17.75;;;;;;;;5034052;28;46234;-79
2021/06/27 09:25:25;;;;;;;;;18.75;17.75;;;;;;;;5028185;28;46173;-78
2021/06/27 09:27:59;;;;;;;;;20.00;17.50;;;;;;;;5032021;28;45729;-78
2021/06/27 09:30:25;;;;;;;;;18.50;16.50;;;;;;;;5033349;28;45679;-78
2021/06/27 09:32:50;;;;;;;;;20.00;18.75;;;;;;;;5026493;28;45824;-78
2021/06/27 09:35:33;;;;;;;;;21.00;18.00;;;;;;;;5037687;28;46424;-78
2021/06/27 09:38:15;;;;;;;;;23.00;19.75;;;;;;;;5028582;28;45719;-78
2021/06/27 09:40:40;;;;;;;;;19.25;18.50;;;;;;;;5034254;28;45737;-78
2021/06/27 09:43:08;;;;;;;;;18.50;16.50;;;;;;;;5027877;28;45758;-78
2021/06/27 09:45:47;;;;;;;;;21.75;19.75;;;;;;;;5044185;28;49343;-78
2021/06/27 09:48:12;;;;;;;;;21.50;21.25;;;;;;;;5029287;28;47183;-78
2021/06/27 09:50:37;;;;;;;;;22.50;21.25;;;;;;;;5028409;28;45630;-79
2021/06/27 09:53:03;;;;;;;;;18.25;18.25;;;;;;;;5015569;28;45426;-78
2021/06/27 09:55:28;;;;;;;;;17.75;17.00;;;;;;;;5029538;28;45501;-78
2021/06/27 09:58:12;;;;;;;;;19.00;18.50;;;;;;;;5027329;28;46452;-76
2021/06/27 10:00:39;;;;;;;;;25.00;18.00;;;;;;;;5042158;28;45344;-76
2021/06/27 10:03:05;;;;;;;;;23.00;20.75;;;;;;;;5026967;28;45609;-75
2021/06/27 10:05:30;;;;;;;;;22.00;18.25;;;;;;;;5034473;28;45586;-75
2021/06/27 10:07:56;;;;;;;;;22.00;19.75;;;;;;;;5025305;28;45711;-76
2021/06/27 10:10:21;;;;;;;;;23.75;19.25;;;;;;;;5034366;28;45604;-76
2021/06/27 10:12:47;;;;;;;;;24.75;20.00;;;;;;;;5035665;28;45519;-76
2021/06/27 10:15:15;;;;;;;;;21.00;18.25;;;;;;;;5035977;28;45601;-76
2021/06/27 10:17:41;;;;;;;;;21.75;20.00;;;;;;;;5036762;28;46178;-75
2021/06/27 10:20:11;;;;;;;;;22.00;20.75;;;;;;;;5029079;28;45514;-77
2021/06/27 10:22:38;;;;;;;;;16.75;15.00;;;;;;;;5022947;28;45561;-75
2021/06/27 10:25:05;;;;;;;;;22.25;22.25;;;;;;;;5040268;28;45765;-76
2021/06/27 10:27:32;;;;;;;;;22.25;20.00;;;;;;;;5031774;28;47136;-75
2021/06/27 10:29:59;;;;;;;;;21.75;19.00;;;;;;;;5024847;28;45492;-76
2021/06/27 10:32:24;;;;;;;;;22.25;20.50;;;;;;;;5041500;28;45500;-76
2021/06/27 10:34:53;;;;;;;;;25.75;21.00;;;;;;;;5023830;28;45586;-75
2021/06/27 10:37:21;;;;;;;;;20.00;19.75;;;;;;;;5026901;28;47037;-75
2021/06/27 10:39:57;;;;;;;;;22.00;18.50;;;;;;;;5035550;28;45746;-76
2021/06/27 10:42:42;;;;;;;;;18.75;18.75;;;;;;;;5035079;28;45580;-76
2021/06/27 10:45:07;;;;;;;;;23.50;19.75;;;;;;;;5026793;28;50661;-75
2021/06/27 10:47:34;;;;;;;;;23.75;21.75;;;;;;;;5033255;28;46011;-75
2021/06/27 10:50:02;;;;;;;;;22.25;20.25;;;;;;;;5035330;28;45612;-75
2021/06/27 10:52:28;;;;;;;;;20.00;17.75;;;;;;;;5039049;28;45481;-76
2021/06/27 10:55:29;;;;;;;;;19.00;17.75;;;;;;;;5034902;28;45498;-77
2021/06/27 10:57:57;;;;;;;;;25.25;19.75;;;;;;;;5004503;28;46061;-78
2021/06/27 11:00:23;;;;;;;;;22.75;20.50;;;;;;;;4996501;28;45585;-78
2021/06/27 11:02:48;;;;;;;;;21.00;20.50;;;;;;;;4999058;28;45818;-78
2021/06/27 11:05:29;;;;;;;;;24.00;21.25;;;;;;;;5003705;28;45582;-78
2021/06/27 11:07:59;;;;;;;;;21.75;20.25;;;;;;;;4999532;28;45622;-79
2021/06/27 11:10:24;;;;;;;;;23.00;18.25;;;;;;;;4998960;28;45527;-78
2021/06/27 11:13:05;;;;;;;;;26.00;20.00;;;;;;;;5002760;28;45543;-78
2021/06/27 11:15:34;;;;;;;;;19.75;18.00;;;;;;;;4999566;28;45491;-78
2021/06/27 11:18:01;;;;;;;;;22.50;19.75;;;;;;;;4995523;28;46731;-78
2021/06/27 11:20:28;;;;;;;;;20.75;18.50;;;;;;;;4986486;28;45413;-78
2021/06/27 11:22:57;;;;;;;;;20.50;18.50;;;;;;;;4998652;28;45510;-78
2021/06/27 11:25:43;;;;;;;;;23.75;21.25;;;;;;;;4997438;28;45603;-78
2021/06/27 11:28:20;;;;;;;;;18.00;16.50;;;;;;;;4991119;28;46066;-78
2021/06/27 11:30:47;;;;;;;;;18.75;17.75;;;;;;;;4995423;28;45837;-78
2021/06/27 11:33:14;;;;;;;;;16.75;15.00;;;;;;;;4992383;28;45604;-78
2021/06/27 11:35:40;;;;;;;;;14.25;13.50;;;;;;;;5020992;28;46397;-79
2021/06/27 11:38:06;;;;;;;;;14.75;12.75;;;;;;;;5023192;28;46715;-80
2021/06/27 11:40:42;;;;;;;;;14.25;12.50;;;;;;;;5020292;28;45730;-78
2021/06/27 11:43:07;;;;;;;;;15.75;15.75;;;;;;;;5021556;28;45673;-78
2021/06/27 11:45:38;;;;;;;;;16.75;14.50;;;;;;;;5023405;28;45548;-78
2021/06/27 11:48:05;;;;;;;;;16.50;14.25;;;;;;;;5017372;28;46468;-78
2021/06/27 11:50:32;;;;;;;;;18.25;16.00;;;;;;;;5022439;28;45678;-78
2021/06/27 11:53:02;;;;;;;;;20.50;17.75;;;;;;;;5021654;28;45584;-79
2021/06/27 11:55:28;;;;;;;;;17.75;17.75;;;;;;;;5017891;28;46513;-78
2021/06/27 11:57:53;;;;;;;;;18.00;17.00;;;;;;;;5035367;28;46423;-79
2021/06/27 12:00:19;;;;;;;;;18.25;17.00;;;;;;;;5028688;28;46334;-78
2021/06/27 12:02:44;;;;;;;;;18.00;18.00;;;;;;;;5025229;28;45632;-79
2021/06/27 12:05:11;;;;;;;;;19.25;18.75;;;;;;;;5027244;28;45595;-78
2021/06/27 12:07:39;;;;;;;;;21.25;16.25;;;;;;;;5024383;28;45536;-78
2021/06/27 12:10:04;;;;;;;;;20.75;18.75;;;;;;;;5034691;28;45677;-78
2021/06/27 12:12:33;;;;;;;;;18.75;17.75;;;;;;;;5033812;28;47793;-78
2021/06/27 12:14:59;;;;;;;;;17.25;15.75;;;;;;;;5022834;28;45548;-78
2021/06/27 12:17:24;;;;;;;;;22.25;17.50;;;;;;;;5031941;28;45677;-78
2021/06/27 12:19:53;;;;;;;;;18.75;16.25;;;;;;;;5028822;22;45677;-78
2021/06/27 12:22:18;;;;;;;;;22.25;18.50;;;;;;;;5007998;28;45513;-78
2021/06/27 12:24:43;;;;;;;;;17.75;16.00;;;;;;;;5008780;28;45821;-78
2021/06/27 12:29:36;;;;;;;;;14.00;12.00;;;;;;;;5025323;28;45354;-78
2021/06/27 12:32:04;;;;;;;;;13.75;12.25;;;;;;;;5018041;28;45476;-78
2021/06/27 12:34:30;;;;;;;;;14.00;12.75;;;;;;;;5008782;28;45659;-78
2021/06/27 12:36:55;;;;;;;;;13.00;12.25;;;;;;;;5021981;28;48780;-78
2021/06/27 12:39:25;;;;;;;;;14.25;12.00;;;;;;;;5014593;28;56708;-78
2021/06/27 12:42:06;;;;;;;;;13.75;11.00;;;;;;;;5014079;28;45779;-79
2021/06/27 12:44:31;;;;;;;;;12.50;9.50;;;;;;;;5020898;28;48053;-79
2021/06/27 12:46:56;;;;;;;;;13.00;11.67;;;;;;;;5018009;28;48058;-79
2021/06/27 12:49:30;;;;;;;;;13.50;12.00;;;;;;;;5021481;28;47444;-79
2021/06/27 12:52:02;;;;;;;;;11.25;11.25;;;;;;;;5016266;28;45627;-78
2021/06/27 12:54:44;;;;;;;;;10.00;9.00;;;;;;;;5025282;28;45406;-78
2021/06/27 12:57:17;;;;;;;;;13.50;10.00;;;;;;;;5011209;28;46244;-76
2021/06/27 12:59:44;;;;;;;;;12.75;11.25;;;;;;;;5007784;28;45998;-76
2021/06/27 13:02:10;;;;;;;;;9.00;9.00;;;;;;;;5016698;28;45559;-75
2021/06/27 13:04:56;;;;;;;;;12.25;12.00;;;;;;;;5014403;28;46234;-76
2021/06/27 13:07:26;;;;;;;;;10.75;10.00;;;;;;;;5010130;28;53619;-76
2021/06/27 13:10:03;;;;;;;;;9.00;9.00;;;;;;;;5015522;28;54909;-76
2021/06/27 13:12:29;;;;;;;;;12.25;10.25;;;;;;;;5012700;28;45540;-75
2021/06/27 13:15:13;;;;;;;;;12.00;9.75;;;;;;;;5011191;28;55381;-76
2021/06/27 13:17:48;;;;;;;;;11.00;10.00;;;;;;;;5008063;28;46598;-77
2021/06/27 13:20:15;;;;;;;;;10.50;10.00;;;;;;;;5009333;28;45502;-76
2021/06/27 13:22:56;;;;;;;;;12.75;10.50;;;;;;;;5007378;28;45591;-75
2021/06/27 13:25:39;;;;;;;;;11.25;9.25;;;;;;;;5014515;28;47943;-76
2021/06/27 13:28:05;;;;;;;;;10.25;9.75;;;;;;;;5010446;28;48413;-76
2021/06/27 13:30:42;;;;;;;;;12.00;8.50;;;;;;;;5012419;28;45398;-76
2021/06/27 13:33:08;;;;;;;;;12.25;12.00;;;;;;;;5007027;28;45624;-76
2021/06/27 13:35:35;;;;;;;;;14.50;11.50;;;;;;;;5036755;22;46245;-76
2021/06/27 13:38:02;;;;;;;;;13.00;11.75;;;;;;;;4982947;28;46108;-76
2021/06/27 13:40:28;;;;;;;;;11.75;10.00;;;;;;;;4991813;28;45921;-76
2021/06/27 13:42:54;;;;;;;;;10.00;10.00;;;;;;;;4999153;28;48721;-76
2021/06/27 13:45:21;;;;;;;;;10.00;9.25;;;;;;;;4977440;28;45509;-76
2021/06/27 13:47:47;;;;;;;;;10.75;9.00;;;;;;;;4996526;28;46569;-76
2021/06/27 13:50:18;;;;;;;;;11.75;9.50;;;;;;;;5002963;28;45324;-76
2021/06/27 13:52:44;;;;;;;;;9.75;9.50;;;;;;;;5000767;28;46321;-77
2021/06/27 13:55:10;;;;;;;;;11.75;10.75;;;;;;;;4994705;28;45374;-77
2021/06/27 13:57:36;;;;;;;;;12.25;11.00;;;;;;;;4995117;28;45408;-78
2021/06/27 14:00:03;;;;;;;;;12.25;12.00;;;;;;;;4993502;28;45478;-78
2021/06/27 14:02:28;;;;;;;;;12.75;12.75;;;;;;;;4995488;28;45674;-78
2021/06/27 14:04:53;;;;;;;;;11.50;11.50;;;;;;;;4993238;28;45622;-78
2021/06/27 14:07:19;;;;;;;;;11.50;11.50;;;;;;;;4985451;28;47150;-79
2021/06/27 14:14:54;;;;;;;;;10.00;9.50;;;;;;;;4776010;26;45988;-79
2021/06/27 14:17:19;;;;;;;;;11.00;9.00;;;;;;;;4995257;28;45568;-78
2021/06/27 14:19:45;;;;;;;;;12.50;12.25;;;;;;;;4974297;28;45551;-78
2021/06/27 14:22:10;;;;;;;;;12.25;12.25;;;;;;;;4992201;28;45342;-78
2021/06/27 14:24:35;;;;;;;;;9.67;7.67;;;;;;;;4991353;28;45854;-78
2021/06/27 14:27:00;;;;;;;;;10.75;10.75;;;;;;;;4987505;28;46623;-78